Terminal Aerodrome Forecast
Issued by NWS

Home | Current Version | Previous Version | Graphics & Text | Print | Product List | Glossary On
Versions: 1 2 3 4 5 6 7 8 9 10 11 12 13 14 15 16 17 18 19 20 21
000
FTUS43 KMPX 020533
TAFAXN
TAF
KAXN 020533Z 0206/0306 14007KT P6SM SCT100 BKN200
      TEMPO 0206/0210 3SM BR
     FM021200 15009KT P6SM SCT150
     FM021800 16010KT P6SM SCT050 BKN250=

USA.gov is the U.S. government's official web portal to all federal, state and local government web resources and services.